Grayson, KY (41143)

4:46 PM EDT on August 28, 2016 (GMT -0400)
Malone Funeral Home | | Change Station
Active Advisory: Heat Advisory

Elev 663 ft 38.34 °N, 82.95 °W | Updated 5 minutes ago

Partly Cloudy
Partly Cloudy
84.2 °F
Feels Like 88 °F
N
2.7
Wind Variable Wind from West

Today
High -- | Low -- °F
--% Chance of Precip.
Yesterday
High -- | Low -- °F
Precip. -- in
Pressure 30.11 in
Visibility 10.0 miles
Clouds Few 5000 ft
Heat Index 88 °F
Dew Point 68 °F
Humidity 59%
Rainfall 0.00 in
Snow Depth Not available.
6:58 AM 8:06 PM
Waning Crescent, 13% visible
METAR KHTS 281951Z 07005KT 10SM FEW050 33/23 A3013 RMK AO2 SLP194 T03330228
Pressure 30.11 in
Visibility 10.0 miles
Clouds Few 5000 ft
Heat Index 88 °F
Dew Point 68 °F
Humidity 59%
Rainfall 0.00 in
Snow Depth Not available.
6:58 AM 8:06 PM
Waning Crescent, 13% visible
METAR KHTS 281951Z 07005KT 10SM FEW050 33/23 A3013 RMK AO2 SLP194 T03330228

10-Day Weather Forecast

Almanac

Astronomy

Aug. 28, 2016 Rise Set
Actual Time
Civil Twilight
Nautical Twilight
Astronomical Twilight
Moon
Length of Visible Light
Length of Day
Tomorrow will be .
, % of the Moon is Illuminated

Today's Extremes

State Highs State Lows

Community

WunderPhotos

Upload Photos

1,935,689 photos uploaded!

WunderBlog® & News

Nearby

Air Quality

  Air Quality AQ Index Pollutant
Not available.

Snow Depth

Station Depth Elevation

Earthquake Activity

City Distance Mag. Time & Date
Minimum magnitude displayed is 2.5.

Coastal Water Temperatures

Place Temperature

Stations

Nearby Weather Stations

Station Location Temp. Windchill Dew Point Humidity Wind Precip. Elev Updated Type
                   

Watches & Warnings

Heat Advisory
Issued: 2:20 PM EDT Aug. 28, 2016 – National Weather Service

... Heat advisory remains in effect until 8 PM EDT this evening...

* heat index values... 100 to 102 due to temperatures in the
lower 90s... and dewpoints in the lower 70s.

* Timing... the highest heat indices will be mid afternoon into
early evening.

* Impacts... heat exhaustion and other heat related illnesses
will be possible... especially if you spend a significant
amount of time outdoors... or are involved in any strenuous
outdoor activity.

Precautionary/preparedness actions...

A heat advisory means that a period of hot temperatures is
expected. The combination of hot temperatures and high humidity
will combine to create a situation in which heat illnesses are
possible.

Take extra precautions... if you work or spend time outside. When
possible... reschedule strenuous activities to early morning or
evening. Wear light weight and loose fitting clothing when
possible... take frequent breaks and drink plenty of water.

Know the signs and symptoms of heat exhaustion and heat stroke.
Anyone overcome by heat should be moved to a cool and shaded
location. Heat stroke is an emergency... call 9 1 1.